createdAt,value
2018-06-25T00:00:18.313Z,97273.40
2018-06-25T00:05:12.920Z,97284.34
2018-06-25T00:10:07.464Z,97290.39
2018-06-25T00:15:01.947Z,97283.48
2018-06-25T00:19:56.460Z,97277.22
2018-06-25T00:24:50.885Z,97281.63
2018-06-25T00:29:45.389Z,97279.27
2018-06-25T00:34:39.925Z,97279.57
2018-06-25T00:39:34.575Z,97271.85
2018-06-25T00:44:29.085Z,97268.81
2018-06-25T00:49:23.579Z,97265.42
2018-06-25T00:54:18.110Z,97276.21
2018-06-25T00:59:29.314Z,97289.39
2018-06-25T01:04:23.828Z,97278.88
2018-06-25T01:09:18.329Z,97284.61
2018-06-25T01:14:12.833Z,97295.75
2018-06-25T01:19:07.454Z,97287.19
2018-06-25T01:24:02.389Z,97283.84
2018-06-25T01:28:56.850Z,97285.88
2018-06-25T01:33:51.268Z,97284.33
2018-06-25T01:38:45.736Z,97284.17
2018-06-25T01:43:40.297Z,97280.67
2018-06-25T01:48:34.858Z,97274.45
2018-06-25T01:53:29.274Z,97276.66
2018-06-25T01:58:23.760Z,97279.84
2018-06-25T02:03:18.212Z,97271.55
2018-06-25T02:08:12.784Z,97263.14
2018-06-25T02:13:08.100Z,97264.73
2018-06-25T02:18:02.616Z,97261.49
2018-06-25T02:22:57.115Z,97262.36
2018-06-25T02:27:51.625Z,97274.66
2018-06-25T02:32:46.105Z,97279.47
2018-06-25T02:37:40.632Z,97272.45
2018-06-25T02:42:35.145Z,97272.20
2018-06-25T02:47:29.708Z,97267.88
2018-06-25T02:52:24.444Z,97263.56
2018-06-25T02:57:18.950Z,97269.78
2018-06-25T03:02:13.440Z,97271.84
2018-06-25T03:07:07.937Z,97277.63
2018-06-25T03:12:02.527Z,97277.16
2018-06-25T03:17:09.174Z,97277.83
2018-06-25T03:22:03.939Z,97288.31
2018-06-25T03:26:58.529Z,97281.58
2018-06-25T03:31:53.013Z,97284.55
2018-06-25T03:36:47.599Z,97288.78
2018-06-25T03:41:42.180Z,97280.45
2018-06-25T03:46:36.689Z,97292.88
2018-06-25T03:51:31.224Z,97288.70
2018-06-25T03:56:26.398Z,97290.84
2018-06-25T04:02:50.370Z,97294.19
2018-06-25T04:07:44.879Z,97305.09
2018-06-25T04:12:39.450Z,97307.48
2018-06-25T04:17:33.924Z,97306.52
2018-06-25T04:22:28.189Z,97311.05
2018-06-25T04:27:22.783Z,97314.36
2018-06-25T04:32:17.248Z,97316.98
2018-06-25T04:37:11.453Z,97329.63
2018-06-25T04:42:06.079Z,97338.24
2018-06-25T04:47:00.584Z,97339.84
2018-06-25T04:51:55.072Z,97346.83
2018-06-25T04:56:49.568Z,97350.30
2018-06-25T05:01:44.041Z,97352.08
2018-06-25T05:06:38.620Z,97354.77
2018-06-25T05:11:33.137Z,97361.66
2018-06-25T05:16:27.688Z,97355.51
2018-06-25T05:21:22.213Z,97351.55
2018-06-25T05:26:16.885Z,97357.89
2018-06-25T05:31:11.441Z,97364.35
2018-06-25T05:36:06.142Z,97372.03
2018-06-25T05:41:00.580Z,97372.33
2018-06-25T05:45:55.060Z,97378.47
2018-06-25T05:50:49.464Z,97388.58
2018-06-25T05:55:44.281Z,97395.74
2018-06-25T06:00:38.708Z,97400.17
2018-06-25T06:05:33.405Z,97407.20
2018-06-25T06:10:27.976Z,97426.99
2018-06-25T06:15:22.533Z,97427.88
2018-06-25T06:20:17.031Z,97423.55
2018-06-25T06:25:11.310Z,97434.23
2018-06-25T06:30:06.003Z,97437.46
2018-06-25T06:35:00.513Z,97438.50
2018-06-25T06:39:55.116Z,97441.91
2018-06-25T06:44:49.591Z,97431.92
2018-06-25T06:49:44.232Z,97435.08
2018-06-25T06:54:42.651Z,97439.17
2018-06-25T06:59:40.285Z,97434.06
2018-06-25T07:04:37.023Z,97441.66
2018-06-25T07:09:31.540Z,97441.80
2018-06-25T07:14:26.078Z,97449.14
2018-06-25T07:20:52.349Z,97447.09
2018-06-25T07:25:47.795Z,97448.95
2018-06-25T07:30:42.421Z,97455.02
2018-06-25T07:35:37.032Z,97451.48
2018-06-25T07:40:32.174Z,97450.19
2018-06-25T07:45:27.054Z,97442.04
2018-06-25T07:50:22.352Z,97438.53
2018-06-25T07:55:17.888Z,97432.45
2018-06-25T08:00:12.686Z,97426.61
2018-06-25T08:05:07.330Z,97426.80
2018-06-25T08:10:12.122Z,97425.28
2018-06-25T08:15:06.920Z,97439.85
2018-06-25T08:20:01.741Z,97429.66
2018-06-25T08:24:58.040Z,97427.70
2018-06-25T08:29:52.895Z,97431.16
2018-06-25T08:34:47.581Z,97441.00
2018-06-25T08:39:42.158Z,97457.69
2018-06-25T08:44:36.666Z,97453.70
2018-06-25T08:49:31.565Z,97466.05
2018-06-25T08:54:26.965Z,97469.34
2018-06-25T08:59:21.730Z,97475.52
2018-06-25T09:04:16.327Z,97472.30
2018-06-25T09:09:13.265Z,97468.08
2018-06-25T09:14:08.626Z,97465.98
2018-06-25T09:19:03.730Z,97465.54
2018-06-25T09:23:59.269Z,97469.72
2018-06-25T09:28:55.494Z,97464.95
2018-06-25T09:33:50.202Z,97461.57
2018-06-25T09:38:44.856Z,97464.23
2018-06-25T09:43:39.534Z,97469.05
2018-06-25T09:48:34.471Z,97463.13
2018-06-25T09:53:29.270Z,97473.71
2018-06-25T09:58:23.856Z,97477.84
2018-06-25T10:03:18.455Z,97486.80
2018-06-25T10:08:12.645Z,97479.16
2018-06-25T10:13:07.178Z,97478.88
2018-06-25T10:18:01.751Z,97478.31
2018-06-25T10:22:56.354Z,97479.13
2018-06-25T10:27:51.163Z,97471.23
2018-06-25T10:32:46.380Z,97467.91
2018-06-25T10:37:43.497Z,97474.14
2018-06-25T10:42:38.299Z,97479.16
2018-06-25T10:47:32.732Z,97479.15
2018-06-25T10:52:27.288Z,97477.56
2018-06-25T10:57:22.035Z,97472.20
2018-06-25T11:02:16.850Z,97472.15
2018-06-25T11:07:13.311Z,97476.20
2018-06-25T11:12:07.651Z,97482.11
2018-06-25T11:17:02.754Z,97478.02
2018-06-25T11:22:01.604Z,97467.30
2018-06-25T11:26:56.229Z,97470.34
2018-06-25T11:31:55.313Z,97466.51
2018-06-25T11:36:50.835Z,97470.50
2018-06-25T11:41:45.428Z,97460.85
2018-06-25T11:46:41.803Z,97462.83
2018-06-25T11:51:36.539Z,97455.22
2018-06-25T11:56:31.102Z,97457.03
2018-06-25T12:01:25.684Z,97446.16
2018-06-25T12:06:20.297Z,97435.72
2018-06-25T12:11:14.877Z,97428.73
2018-06-25T12:16:09.605Z,97429.50
2018-06-25T12:21:04.385Z,97441.44
2018-06-25T12:25:59.214Z,97453.98
2018-06-25T12:30:54.321Z,97443.34
2018-06-25T12:35:48.844Z,97453.62
2018-06-25T12:40:43.994Z,97448.42
2018-06-25T12:45:41.070Z,97439.38
2018-06-25T12:50:35.869Z,97436.56
2018-06-25T12:55:30.765Z,97434.22
2018-06-25T13:00:27.576Z,97428.25
2018-06-25T13:05:31.779Z,97427.41
2018-06-25T13:10:27.013Z,97428.83
2018-06-25T13:15:21.763Z,97429.67
2018-06-25T13:20:19.634Z,97436.11
2018-06-25T13:25:14.509Z,97430.86
2018-06-25T13:30:10.618Z,97434.41
2018-06-25T13:35:23.964Z,97430.83
2018-06-25T13:40:18.674Z,97431.44
2018-06-25T13:45:13.540Z,97434.59
2018-06-25T13:50:08.578Z,97430.71
2018-06-25T13:55:07.244Z,97418.09
2018-06-25T14:00:02.429Z,97421.92
2018-06-25T14:04:57.057Z,97417.58
2018-06-25T14:09:51.738Z,97420.40
2018-06-25T14:14:46.390Z,97419.89
2018-06-25T14:19:41.133Z,97419.19
2018-06-25T14:24:43.940Z,97431.77
2018-06-25T14:29:39.031Z,97425.73
2018-06-25T14:34:33.687Z,97419.67
2018-06-25T14:39:28.514Z,97410.91
2018-06-25T14:44:23.137Z,97418.16
2018-06-25T14:49:18.268Z,97424.00
2018-06-25T14:54:35.757Z,97417.46
2018-06-25T14:59:30.352Z,97418.09
2018-06-25T15:04:25.221Z,97411.96
2018-06-25T15:09:19.852Z,97402.23
2018-06-25T15:14:14.488Z,97401.46
2018-06-25T15:19:09.329Z,97404.06
2018-06-25T15:24:04.574Z,97392.53
2018-06-25T15:28:59.409Z,97384.52
2018-06-25T15:33:54.135Z,97384.94
2018-06-25T15:38:48.787Z,97389.25
2018-06-25T15:43:43.471Z,97384.38
2018-06-25T15:48:37.735Z,97384.73
2018-06-25T15:53:32.480Z,97384.68
2018-06-25T15:58:27.094Z,97387.37
2018-06-25T16:03:21.669Z,97390.56
2018-06-25T16:08:16.262Z,97388.27
2018-06-25T16:13:10.966Z,97382.02
2018-06-25T16:18:05.624Z,97370.84
2018-06-25T16:23:00.283Z,97364.78
2018-06-25T16:27:54.903Z,97379.19
2018-06-25T16:32:49.457Z,97372.48
2018-06-25T16:37:45.233Z,97369.83
2018-06-25T16:42:40.157Z,97369.75
2018-06-25T16:47:34.955Z,97377.86
2018-06-25T16:52:29.707Z,97369.60
2018-06-25T16:57:24.242Z,97371.53
2018-06-25T17:02:18.837Z,97373.42
2018-06-25T17:07:13.423Z,97380.42
2018-06-25T17:12:08.061Z,97380.12
2018-06-25T17:17:02.659Z,97378.19
2018-06-25T17:21:57.294Z,97386.82
2018-06-25T17:26:51.913Z,97378.75
2018-06-25T17:31:46.476Z,97378.06
2018-06-25T17:36:41.018Z,97382.05
2018-06-25T17:41:35.601Z,97389.22
2018-06-25T17:46:30.159Z,97383.12
2018-06-25T17:51:24.765Z,97387.53
2018-06-25T17:56:19.347Z,97390.72
2018-06-25T18:01:14.027Z,97389.87
2018-06-25T18:06:08.534Z,97401.11
2018-06-25T18:12:32.622Z,97404.91
2018-06-25T18:17:27.285Z,97411.63
2018-06-25T18:22:21.877Z,97423.95
2018-06-25T18:27:16.131Z,97422.23
2018-06-25T18:32:10.669Z,97419.78
2018-06-25T18:37:05.251Z,97420.99
2018-06-25T18:41:59.837Z,97418.36
2018-06-25T18:46:54.418Z,97427.23
2018-06-25T18:51:48.964Z,97430.99
2018-06-25T18:56:43.587Z,97423.04
2018-06-25T19:01:38.207Z,97429.18
2018-06-25T19:06:32.815Z,97432.34
2018-06-25T19:11:27.452Z,97425.64
2018-06-25T19:16:22.118Z,97421.11
2018-06-25T19:26:42.809Z,97452.21
2018-06-25T19:31:37.410Z,97457.05
2018-06-25T19:36:32.057Z,97463.17
2018-06-25T19:41:26.637Z,97471.65
2018-06-25T19:46:21.310Z,97477.48
2018-06-25T19:51:15.998Z,97478.52
2018-06-25T19:56:10.551Z,97483.36
2018-06-25T20:01:05.164Z,97493.95
2018-06-25T20:05:59.775Z,97501.11
2018-06-25T20:10:54.278Z,97495.48
2018-06-25T20:15:48.945Z,97491.92
2018-06-25T20:20:43.531Z,97504.34
2018-06-25T20:25:38.105Z,97511.50
2018-06-25T20:30:32.417Z,97506.16
2018-06-25T20:35:26.970Z,97509.84
2018-06-25T20:40:21.545Z,97512.76
2018-06-25T20:45:16.125Z,97511.91
2018-06-25T20:50:10.691Z,97512.06
2018-06-25T20:55:05.649Z,97518.11
2018-06-25T21:00:00.333Z,97528.27
2018-06-25T21:04:55.023Z,97528.22
2018-06-25T21:09:49.562Z,97535.49
2018-06-25T21:14:44.096Z,97532.73
2018-06-25T21:19:39.209Z,97537.88
2018-06-25T21:24:33.734Z,97537.03
2018-06-25T21:29:28.336Z,97542.41
2018-06-25T21:34:22.905Z,97536.06
2018-06-25T21:39:17.432Z,97536.28
2018-06-25T21:44:12.021Z,97538.55
2018-06-25T21:50:36.121Z,97550.24
2018-06-25T21:55:30.672Z,97548.63
2018-06-25T22:00:31.606Z,97550.88
2018-06-25T22:05:26.116Z,97552.55
2018-06-25T22:10:20.365Z,97553.27
2018-06-25T22:15:14.991Z,97558.41
2018-06-25T22:20:09.652Z,97553.46
2018-06-25T22:25:04.273Z,97557.47
2018-06-25T22:29:58.925Z,97557.77
2018-06-25T22:34:53.448Z,97559.80
2018-06-25T22:39:48.048Z,97560.39
2018-06-25T22:44:42.618Z,97555.98
2018-06-25T22:49:37.293Z,97559.64
2018-06-25T22:54:31.865Z,97563.74
2018-06-25T22:59:26.410Z,97570.21
2018-06-25T23:04:20.978Z,97573.41
2018-06-25T23:09:15.536Z,97568.95
2018-06-25T23:14:10.062Z,97571.88
2018-06-25T23:19:04.583Z,97573.95
2018-06-25T23:23:59.122Z,97576.53
2018-06-25T23:28:53.710Z,97578.31
2018-06-25T23:33:48.223Z,97582.30
2018-06-25T23:38:42.751Z,97575.33
2018-06-25T23:43:37.348Z,97570.11
2018-06-25T23:48:31.894Z,97566.97
2018-06-25T23:53:26.486Z,97567.01
2018-06-25T23:58:21.361Z,97566.19
